sensor_id;sensor_type;location;lat;lon;timestamp;temperature;humidity
49777;DHT22;35673;51.482;7.436;2022-11-03T00:00:05;11.90;78.70
49777;DHT22;35673;51.482;7.436;2022-11-03T00:02:30;12.00;78.90
49777;DHT22;35673;51.482;7.436;2022-11-03T00:04:56;12.00;79.10
49777;DHT22;35673;51.482;7.436;2022-11-03T00:07:22;11.90;79.20
49777;DHT22;35673;51.482;7.436;2022-11-03T00:09:47;12.00;79.40
49777;DHT22;35673;51.482;7.436;2022-11-03T00:12:14;11.90;79.60
49777;DHT22;35673;51.482;7.436;2022-11-03T00:14:39;11.90;79.90
49777;DHT22;35673;51.482;7.436;2022-11-03T00:17:05;11.90;80.00
49777;DHT22;35673;51.482;7.436;2022-11-03T00:19:30;11.90;80.10
49777;DHT22;35673;51.482;7.436;2022-11-03T00:21:56;11.90;80.50
49777;DHT22;35673;51.482;7.436;2022-11-03T00:24:23;11.90;80.80
49777;DHT22;35673;51.482;7.436;2022-11-03T00:26:49;11.90;81.10
49777;DHT22;35673;51.482;7.436;2022-11-03T00:29:15;12.00;81.40
49777;DHT22;35673;51.482;7.436;2022-11-03T00:31:43;11.90;81.60
49777;DHT22;35673;51.482;7.436;2022-11-03T00:34:09;12.00;81.90
49777;DHT22;35673;51.482;7.436;2022-11-03T00:36:39;11.90;82.10
49777;DHT22;35673;51.482;7.436;2022-11-03T00:39:06;11.90;82.40
49777;DHT22;35673;51.482;7.436;2022-11-03T00:41:32;11.90;82.70
49777;DHT22;35673;51.482;7.436;2022-11-03T00:43:57;11.90;83.00
49777;DHT22;35673;51.482;7.436;2022-11-03T00:46:24;11.90;83.20
49777;DHT22;35673;51.482;7.436;2022-11-03T00:48:50;11.90;83.50
49777;DHT22;35673;51.482;7.436;2022-11-03T00:51:18;11.90;83.80
49777;DHT22;35673;51.482;7.436;2022-11-03T00:53:50;11.90;84.00
49777;DHT22;35673;51.482;7.436;2022-11-03T00:56:27;11.90;84.30
49777;DHT22;35673;51.482;7.436;2022-11-03T00:58:54;12.00;84.90
49777;DHT22;35673;51.482;7.436;2022-11-03T01:01:29;12.00;84.60
49777;DHT22;35673;51.482;7.436;2022-11-03T01:03:59;12.00;85.00
49777;DHT22;35673;51.482;7.436;2022-11-03T01:06:49;11.90;85.30
49777;DHT22;35673;51.482;7.436;2022-11-03T01:09:25;12.00;85.60
49777;DHT22;35673;51.482;7.436;2022-11-03T01:14:48;12.00;86.20
49777;DHT22;35673;51.482;7.436;2022-11-03T01:17:15;12.00;86.00
49777;DHT22;35673;51.482;7.436;2022-11-03T01:19:41;12.10;86.30
49777;DHT22;35673;51.482;7.436;2022-11-03T01:22:07;12.00;86.30
49777;DHT22;35673;51.482;7.436;2022-11-03T01:24:33;12.10;86.50
49777;DHT22;35673;51.482;7.436;2022-11-03T01:26:59;12.10;86.70
49777;DHT22;35673;51.482;7.436;2022-11-03T01:29:25;12.10;86.80
49777;DHT22;35673;51.482;7.436;2022-11-03T01:31:50;12.10;86.90
49777;DHT22;35673;51.482;7.436;2022-11-03T01:34:18;12.10;87.00
49777;DHT22;35673;51.482;7.436;2022-11-03T01:36:44;12.10;87.20
49777;DHT22;35673;51.482;7.436;2022-11-03T01:39:12;12.10;87.50
49777;DHT22;35673;51.482;7.436;2022-11-03T01:41:37;12.10;87.50
49777;DHT22;35673;51.482;7.436;2022-11-03T01:44:25;12.10;88.10
49777;DHT22;35673;51.482;7.436;2022-11-03T01:47:09;12.10;88.20
49777;DHT22;35673;51.482;7.436;2022-11-03T01:52:32;12.10;88.20
49777;DHT22;35673;51.482;7.436;2022-11-03T01:55:01;12.10;88.40
49777;DHT22;35673;51.482;7.436;2022-11-03T01:57:35;12.10;88.60
49777;DHT22;35673;51.482;7.436;2022-11-03T02:00:03;12.10;88.90
49777;DHT22;35673;51.482;7.436;2022-11-03T02:02:29;12.10;89.10
49777;DHT22;35673;51.482;7.436;2022-11-03T02:04:57;12.10;89.60
49777;DHT22;35673;51.482;7.436;2022-11-03T02:07:58;12.00;90.00
49777;DHT22;35673;51.482;7.436;2022-11-03T02:10:25;12.00;90.40
49777;DHT22;35673;51.482;7.436;2022-11-03T02:12:51;12.00;90.10
49777;DHT22;35673;51.482;7.436;2022-11-03T02:15:18;12.00;90.30
49777;DHT22;35673;51.482;7.436;2022-11-03T02:17:47;12.00;90.50
49777;DHT22;35673;51.482;7.436;2022-11-03T02:20:17;12.00;90.60
49777;DHT22;35673;51.482;7.436;2022-11-03T02:25:44;12.00;90.90
49777;DHT22;35673;51.482;7.436;2022-11-03T02:28:14;12.00;91.20
49777;DHT22;35673;51.482;7.436;2022-11-03T02:33:44;11.90;91.60
49777;DHT22;35673;51.482;7.436;2022-11-03T02:39:02;11.90;92.00
49777;DHT22;35673;51.482;7.436;2022-11-03T02:41:33;11.90;92.10
49777;DHT22;35673;51.482;7.436;2022-11-03T02:44:00;11.90;92.20
49777;DHT22;35673;51.482;7.436;2022-11-03T02:46:27;11.90;92.40
49777;DHT22;35673;51.482;7.436;2022-11-03T02:48:54;11.90;92.60
49777;DHT22;35673;51.482;7.436;2022-11-03T02:51:22;11.80;92.80
49777;DHT22;35673;51.482;7.436;2022-11-03T02:56:22;11.90;93.20
49777;DHT22;35673;51.482;7.436;2022-11-03T02:59:02;11.80;93.20
49777;DHT22;35673;51.482;7.436;2022-11-03T03:01:35;11.80;93.70
49777;DHT22;35673;51.482;7.436;2022-11-03T03:04:47;11.80;93.70
49777;DHT22;35673;51.482;7.436;2022-11-03T03:07:07;11.80;93.70
49777;DHT22;35673;51.482;7.436;2022-11-03T03:10:16;11.80;94.00
49777;DHT22;35673;51.482;7.436;2022-11-03T03:12:46;11.80;94.60
49777;DHT22;35673;51.482;7.436;2022-11-03T03:15:12;11.70;94.50
49777;DHT22;35673;51.482;7.436;2022-11-03T03:17:46;11.80;94.30
49777;DHT22;35673;51.482;7.436;2022-11-03T03:20:23;11.80;94.70
49777;DHT22;35673;51.482;7.436;2022-11-03T03:23:20;11.80;94.90
49777;DHT22;35673;51.482;7.436;2022-11-03T03:28:24;11.80;94.80
49777;DHT22;35673;51.482;7.436;2022-11-03T03:30:52;11.80;94.80
49777;DHT22;35673;51.482;7.436;2022-11-03T03:33:20;11.80;94.70
49777;DHT22;35673;51.482;7.436;2022-11-03T03:35:48;11.80;94.70
49777;DHT22;35673;51.482;7.436;2022-11-03T03:38:20;11.80;94.70
49777;DHT22;35673;51.482;7.436;2022-11-03T03:40:50;11.80;94.80
49777;DHT22;35673;51.482;7.436;2022-11-03T03:43:17;11.80;95.00
49777;DHT22;35673;51.482;7.436;2022-11-03T03:45:45;11.80;94.80
49777;DHT22;35673;51.482;7.436;2022-11-03T03:48:12;11.90;94.80
49777;DHT22;35673;51.482;7.436;2022-11-03T03:50:38;11.90;94.70
49777;DHT22;35673;51.482;7.436;2022-11-03T03:53:10;11.90;94.70
49777;DHT22;35673;51.482;7.436;2022-11-03T03:55:43;11.90;94.70
49777;DHT22;35673;51.482;7.436;2022-11-03T03:58:11;11.90;95.10
49777;DHT22;35673;51.482;7.436;2022-11-03T04:00:38;11.90;94.90
49777;DHT22;35673;51.482;7.436;2022-11-03T04:03:04;11.90;94.90
49777;DHT22;35673;51.482;7.436;2022-11-03T04:05:30;11.90;95.00
49777;DHT22;35673;51.482;7.436;2022-11-03T04:07:56;11.90;95.10
49777;DHT22;35673;51.482;7.436;2022-11-03T04:10:23;11.90;95.40
49777;DHT22;35673;51.482;7.436;2022-11-03T04:12:49;11.90;95.60
49777;DHT22;35673;51.482;7.436;2022-11-03T04:15:34;11.80;95.70
49777;DHT22;35673;51.482;7.436;2022-11-03T04:18:19;11.80;95.80
49777;DHT22;35673;51.482;7.436;2022-11-03T04:21:04;11.80;95.90
49777;DHT22;35673;51.482;7.436;2022-11-03T04:23:48;11.80;96.00
49777;DHT22;35673;51.482;7.436;2022-11-03T04:26:16;11.80;96.30
49777;DHT22;35673;51.482;7.436;2022-11-03T04:28:42;11.80;96.40
49777;DHT22;35673;51.482;7.436;2022-11-03T04:31:13;11.80;96.50
49777;DHT22;35673;51.482;7.436;2022-11-03T04:33:40;11.90;96.70
49777;DHT22;35673;51.482;7.436;2022-11-03T04:36:32;11.80;96.80
49777;DHT22;35673;51.482;7.436;2022-11-03T04:38:57;11.80;96.90
49777;DHT22;35673;51.482;7.436;2022-11-03T04:41:26;11.80;96.90
49777;DHT22;35673;51.482;7.436;2022-11-03T04:43:52;11.90;97.10
49777;DHT22;35673;51.482;7.436;2022-11-03T04:46:28;11.90;97.20
49777;DHT22;35673;51.482;7.436;2022-11-03T04:48:58;11.90;97.20
49777;DHT22;35673;51.482;7.436;2022-11-03T04:51:27;11.90;97.10
49777;DHT22;35673;51.482;7.436;2022-11-03T04:54:06;11.90;97.10
49777;DHT22;35673;51.482;7.436;2022-11-03T04:56:39;11.90;97.00
49777;DHT22;35673;51.482;7.436;2022-11-03T04:59:10;11.80;97.00
49777;DHT22;35673;51.482;7.436;2022-11-03T05:01:35;11.80;97.10
49777;DHT22;35673;51.482;7.436;2022-11-03T05:04:01;11.80;97.10
49777;DHT22;35673;51.482;7.436;2022-11-03T05:06:27;11.80;97.10
49777;DHT22;35673;51.482;7.436;2022-11-03T05:09:03;11.80;97.00
49777;DHT22;35673;51.482;7.436;2022-11-03T05:11:33;11.80;96.90
49777;DHT22;35673;51.482;7.436;2022-11-03T05:14:25;11.90;96.80
49777;DHT22;35673;51.482;7.436;2022-11-03T05:16:52;11.90;96.70
49777;DHT22;35673;51.482;7.436;2022-11-03T05:19:34;11.90;96.80
49777;DHT22;35673;51.482;7.436;2022-11-03T05:22:02;11.80;96.70
49777;DHT22;35673;51.482;7.436;2022-11-03T05:24:29;11.90;96.80
49777;DHT22;35673;51.482;7.436;2022-11-03T05:26:57;11.80;96.80
49777;DHT22;35673;51.482;7.436;2022-11-03T05:29:27;11.90;96.80
49777;DHT22;35673;51.482;7.436;2022-11-03T05:31:55;11.90;96.80
49777;DHT22;35673;51.482;7.436;2022-11-03T05:34:39;11.90;96.70
49777;DHT22;35673;51.482;7.436;2022-11-03T05:39:37;12.00;96.40
49777;DHT22;35673;51.482;7.436;2022-11-03T05:44:54;12.00;96.50
49777;DHT22;35673;51.482;7.436;2022-11-03T05:47:25;12.00;96.40
49777;DHT22;35673;51.482;7.436;2022-11-03T05:49:56;12.00;96.50
49777;DHT22;35673;51.482;7.436;2022-11-03T05:52:26;12.00;96.50
49777;DHT22;35673;51.482;7.436;2022-11-03T05:54:53;12.00;96.60
49777;DHT22;35673;51.482;7.436;2022-11-03T05:57:19;12.00;96.70
49777;DHT22;35673;51.482;7.436;2022-11-03T05:59:48;12.00;96.80
49777;DHT22;35673;51.482;7.436;2022-11-03T06:04:50;12.00;96.90
49777;DHT22;35673;51.482;7.436;2022-11-03T06:07:23;12.00;97.10
49777;DHT22;35673;51.482;7.436;2022-11-03T06:09:51;12.00;97.40
49777;DHT22;35673;51.482;7.436;2022-11-03T06:12:18;12.00;97.30
49777;DHT22;35673;51.482;7.436;2022-11-03T06:14:45;12.00;97.30
49777;DHT22;35673;51.482;7.436;2022-11-03T06:17:31;12.00;97.30
49777;DHT22;35673;51.482;7.436;2022-11-03T06:19:58;12.00;97.00
49777;DHT22;35673;51.482;7.436;2022-11-03T06:22:31;12.00;97.10
49777;DHT22;35673;51.482;7.436;2022-11-03T06:27:48;12.10;96.90
49777;DHT22;35673;51.482;7.436;2022-11-03T06:30:22;12.10;96.70
49777;DHT22;35673;51.482;7.436;2022-11-03T06:32:48;12.10;96.60
49777;DHT22;35673;51.482;7.436;2022-11-03T06:35:14;12.10;96.40
49777;DHT22;35673;51.482;7.436;2022-11-03T06:37:40;12.10;96.40
49777;DHT22;35673;51.482;7.436;2022-11-03T06:42:36;12.10;96.10
49777;DHT22;35673;51.482;7.436;2022-11-03T06:45:24;12.20;96.40
49777;DHT22;35673;51.482;7.436;2022-11-03T06:47:52;12.20;96.30
49777;DHT22;35673;51.482;7.436;2022-11-03T06:50:38;12.20;96.10
49777;DHT22;35673;51.482;7.436;2022-11-03T06:53:03;12.20;96.10
49777;DHT22;35673;51.482;7.436;2022-11-03T06:55:31;12.20;96.10
49777;DHT22;35673;51.482;7.436;2022-11-03T06:58:01;12.20;95.90
49777;DHT22;35673;51.482;7.436;2022-11-03T07:00:29;12.20;95.90
49777;DHT22;35673;51.482;7.436;2022-11-03T07:03:08;12.30;95.80
49777;DHT22;35673;51.482;7.436;2022-11-03T07:05:36;12.30;95.60
49777;DHT22;35673;51.482;7.436;2022-11-03T07:08:18;12.30;95.40
49777;DHT22;35673;51.482;7.436;2022-11-03T07:10:45;12.40;95.20
49777;DHT22;35673;51.482;7.436;2022-11-03T07:13:18;12.40;95.00
49777;DHT22;35673;51.482;7.436;2022-11-03T07:15:44;12.40;94.80
49777;DHT22;35673;51.482;7.436;2022-11-03T07:18:26;12.50;94.50
49777;DHT22;35673;51.482;7.436;2022-11-03T07:20:53;12.60;94.20
49777;DHT22;35673;51.482;7.436;2022-11-03T07:23:28;12.60;93.80
49777;DHT22;35673;51.482;7.436;2022-11-03T07:25:59;12.60;93.50
49777;DHT22;35673;51.482;7.436;2022-11-03T07:28:29;12.70;93.30
49777;DHT22;35673;51.482;7.436;2022-11-03T07:30:57;12.70;92.90
49777;DHT22;35673;51.482;7.436;2022-11-03T07:33:25;12.70;92.90
49777;DHT22;35673;51.482;7.436;2022-11-03T07:35:52;12.70;92.70
49777;DHT22;35673;51.482;7.436;2022-11-03T07:38:20;12.80;92.40
49777;DHT22;35673;51.482;7.436;2022-11-03T07:40:48;12.80;92.20
49777;DHT22;35673;51.482;7.436;2022-11-03T07:43:31;12.80;92.10
49777;DHT22;35673;51.482;7.436;2022-11-03T07:46:00;12.90;91.90
49777;DHT22;35673;51.482;7.436;2022-11-03T07:48:41;12.90;91.90
49777;DHT22;35673;51.482;7.436;2022-11-03T07:51:32;12.90;91.70
49777;DHT22;35673;51.482;7.436;2022-11-03T07:56:37;13.00;91.30
49777;DHT22;35673;51.482;7.436;2022-11-03T08:01:42;13.10;91.00
49777;DHT22;35673;51.482;7.436;2022-11-03T08:04:32;13.10;90.90
49777;DHT22;35673;51.482;7.436;2022-11-03T08:06:57;13.20;90.80
49777;DHT22;35673;51.482;7.436;2022-11-03T08:09:22;13.20;90.60
49777;DHT22;35673;51.482;7.436;2022-11-03T08:11:48;13.30;90.40
49777;DHT22;35673;51.482;7.436;2022-11-03T08:14:14;13.30;90.30
49777;DHT22;35673;51.482;7.436;2022-11-03T08:16:40;13.40;90.00
49777;DHT22;35673;51.482;7.436;2022-11-03T08:19:06;13.50;89.60
49777;DHT22;35673;51.482;7.436;2022-11-03T08:21:31;13.60;89.00
49777;DHT22;35673;51.482;7.436;2022-11-03T08:23:57;13.60;88.60
49777;DHT22;35673;51.482;7.436;2022-11-03T08:26:23;13.70;88.00
49777;DHT22;35673;51.482;7.436;2022-11-03T08:28:48;13.80;87.50
49777;DHT22;35673;51.482;7.436;2022-11-03T08:31:14;13.80;87.20
49777;DHT22;35673;51.482;7.436;2022-11-03T08:33:40;13.90;86.50
49777;DHT22;35673;51.482;7.436;2022-11-03T08:36:05;13.90;86.30
49777;DHT22;35673;51.482;7.436;2022-11-03T08:38:32;13.90;86.10
49777;DHT22;35673;51.482;7.436;2022-11-03T08:40:58;13.90;85.80
49777;DHT22;35673;51.482;7.436;2022-11-03T08:43:24;13.90;85.70
49777;DHT22;35673;51.482;7.436;2022-11-03T08:45:49;13.90;85.10
49777;DHT22;35673;51.482;7.436;2022-11-03T08:48:22;14.00;84.80
49777;DHT22;35673;51.482;7.436;2022-11-03T08:50:48;14.00;84.50
49777;DHT22;35673;51.482;7.436;2022-11-03T08:53:15;14.00;84.00
49777;DHT22;35673;51.482;7.436;2022-11-03T08:55:41;14.00;83.90
49777;DHT22;35673;51.482;7.436;2022-11-03T08:58:07;14.00;83.50
49777;DHT22;35673;51.482;7.436;2022-11-03T09:00:33;14.10;83.10
49777;DHT22;35673;51.482;7.436;2022-11-03T09:03:00;14.10;82.70
49777;DHT22;35673;51.482;7.436;2022-11-03T09:05:26;14.20;82.60
49777;DHT22;35673;51.482;7.436;2022-11-03T09:07:51;14.20;82.20
49777;DHT22;35673;51.482;7.436;2022-11-03T09:10:17;14.30;81.70
49777;DHT22;35673;51.482;7.436;2022-11-03T09:12:42;14.40;81.20
49777;DHT22;35673;51.482;7.436;2022-11-03T09:15:08;14.40;80.70
49777;DHT22;35673;51.482;7.436;2022-11-03T09:17:34;14.50;80.10
49777;DHT22;35673;51.482;7.436;2022-11-03T09:19:59;14.60;79.60
49777;DHT22;35673;51.482;7.436;2022-11-03T09:22:25;14.70;79.00
49777;DHT22;35673;51.482;7.436;2022-11-03T09:24:51;14.80;78.60
49777;DHT22;35673;51.482;7.436;2022-11-03T09:27:16;14.90;78.30
49777;DHT22;35673;51.482;7.436;2022-11-03T09:29:42;15.10;77.90
49777;DHT22;35673;51.482;7.436;2022-11-03T09:32:07;15.30;77.10
49777;DHT22;35673;51.482;7.436;2022-11-03T09:34:33;15.40;76.30
49777;DHT22;35673;51.482;7.436;2022-11-03T09:36:58;15.50;75.70
49777;DHT22;35673;51.482;7.436;2022-11-03T09:39:24;15.50;75.20
49777;DHT22;35673;51.482;7.436;2022-11-03T09:41:50;15.50;74.50
49777;DHT22;35673;51.482;7.436;2022-11-03T09:44:16;15.60;74.20
49777;DHT22;35673;51.482;7.436;2022-11-03T09:46:42;15.60;73.90
49777;DHT22;35673;51.482;7.436;2022-11-03T09:49:12;15.50;73.70
49777;DHT22;35673;51.482;7.436;2022-11-03T09:51:38;15.60;73.90
49777;DHT22;35673;51.482;7.436;2022-11-03T09:54:04;15.60;73.80
49777;DHT22;35673;51.482;7.436;2022-11-03T09:56:30;15.60;73.60
49777;DHT22;35673;51.482;7.436;2022-11-03T09:58:59;15.60;73.50
49777;DHT22;35673;51.482;7.436;2022-11-03T10:01:25;15.60;73.30
49777;DHT22;35673;51.482;7.436;2022-11-03T10:03:51;15.60;73.10
49777;DHT22;35673;51.482;7.436;2022-11-03T10:06:17;15.60;73.30
49777;DHT22;35673;51.482;7.436;2022-11-03T10:08:44;15.60;73.20
49777;DHT22;35673;51.482;7.436;2022-11-03T10:11:11;15.70;73.10
49777;DHT22;35673;51.482;7.436;2022-11-03T10:13:39;15.70;73.10
49777;DHT22;35673;51.482;7.436;2022-11-03T10:16:07;15.70;72.80
49777;DHT22;35673;51.482;7.436;2022-11-03T10:18:34;15.70;72.60
49777;DHT22;35673;51.482;7.436;2022-11-03T10:23:41;15.70;72.10
49777;DHT22;35673;51.482;7.436;2022-11-03T10:26:12;15.70;72.00
49777;DHT22;35673;51.482;7.436;2022-11-03T10:28:38;15.70;71.90
49777;DHT22;35673;51.482;7.436;2022-11-03T10:31:07;15.70;71.90
49777;DHT22;35673;51.482;7.436;2022-11-03T10:33:53;15.70;71.90
49777;DHT22;35673;51.482;7.436;2022-11-03T10:38:45;15.50;72.00
49777;DHT22;35673;51.482;7.436;2022-11-03T10:43:43;15.50;72.00
49777;DHT22;35673;51.482;7.436;2022-11-03T10:46:20;15.50;71.90
49777;DHT22;35673;51.482;7.436;2022-11-03T10:51:35;15.50;71.80
49777;DHT22;35673;51.482;7.436;2022-11-03T10:54:03;15.50;72.00
49777;DHT22;35673;51.482;7.436;2022-11-03T10:56:31;15.50;71.90
49777;DHT22;35673;51.482;7.436;2022-11-03T10:58:58;15.60;72.00
49777;DHT22;35673;51.482;7.436;2022-11-03T11:01:24;15.60;71.80
49777;DHT22;35673;51.482;7.436;2022-11-03T11:03:50;15.70;71.70
49777;DHT22;35673;51.482;7.436;2022-11-03T11:06:24;15.70;71.60
49777;DHT22;35673;51.482;7.436;2022-11-03T11:08:58;15.70;71.70
49777;DHT22;35673;51.482;7.436;2022-11-03T11:11:24;15.70;71.60
49777;DHT22;35673;51.482;7.436;2022-11-03T11:14:22;15.80;71.60
49777;DHT22;35673;51.482;7.436;2022-11-03T11:16:55;15.70;71.30
49777;DHT22;35673;51.482;7.436;2022-11-03T11:19:23;15.70;71.50
49777;DHT22;35673;51.482;7.436;2022-11-03T11:21:57;15.70;71.50
49777;DHT22;35673;51.482;7.436;2022-11-03T11:29:56;15.60;71.10
49777;DHT22;35673;51.482;7.436;2022-11-03T11:35:08;15.80;70.80
49777;DHT22;35673;51.482;7.436;2022-11-03T11:37:35;15.90;70.80
49777;DHT22;35673;51.482;7.436;2022-11-03T11:40:09;16.10;70.40
49777;DHT22;35673;51.482;7.436;2022-11-03T11:48:29;17.30;67.60
49777;DHT22;35673;51.482;7.436;2022-11-03T11:50:58;17.80;66.50
49777;DHT22;35673;51.482;7.436;2022-11-03T11:53:25;17.90;65.70
49777;DHT22;35673;51.482;7.436;2022-11-03T11:55:54;17.80;65.90
49777;DHT22;35673;51.482;7.436;2022-11-03T11:58:24;17.90;65.80
49777;DHT22;35673;51.482;7.436;2022-11-03T12:03:37;18.40;64.40
49777;DHT22;35673;51.482;7.436;2022-11-03T12:06:04;18.40;64.00
49777;DHT22;35673;51.482;7.436;2022-11-03T12:08:30;18.80;64.00
49777;DHT22;35673;51.482;7.436;2022-11-03T12:10:58;19.50;62.40
49777;DHT22;35673;51.482;7.436;2022-11-03T12:16:33;20.60;59.70
49777;DHT22;35673;51.482;7.436;2022-11-03T12:19:36;21.80;57.20
49777;DHT22;35673;51.482;7.436;2022-11-03T12:22:37;22.90;55.00
49777;DHT22;35673;51.482;7.436;2022-11-03T12:32:17;23.10;53.50
49777;DHT22;35673;51.482;7.436;2022-11-03T12:34:42;22.50;54.20
49777;DHT22;35673;51.482;7.436;2022-11-03T12:37:08;21.70;55.10
49777;DHT22;35673;51.482;7.436;2022-11-03T12:39:34;21.40;55.80
49777;DHT22;35673;51.482;7.436;2022-11-03T12:42:00;21.90;55.40
49777;DHT22;35673;51.482;7.436;2022-11-03T12:44:26;22.10;55.10
49777;DHT22;35673;51.482;7.436;2022-11-03T12:46:52;21.30;55.70
49777;DHT22;35673;51.482;7.436;2022-11-03T12:49:17;20.50;57.10
49777;DHT22;35673;51.482;7.436;2022-11-03T12:51:43;19.70;58.60
49777;DHT22;35673;51.482;7.436;2022-11-03T12:54:08;19.30;59.50
49777;DHT22;35673;51.482;7.436;2022-11-03T12:56:34;18.90;60.20
49777;DHT22;35673;51.482;7.436;2022-11-03T12:58:59;18.70;60.90
49777;DHT22;35673;51.482;7.436;2022-11-03T13:01:25;18.60;61.30
49777;DHT22;35673;51.482;7.436;2022-11-03T13:03:51;18.80;61.30
49777;DHT22;35673;51.482;7.436;2022-11-03T13:06:17;18.90;60.80
49777;DHT22;35673;51.482;7.436;2022-11-03T13:08:42;19.30;60.30
49777;DHT22;35673;51.482;7.436;2022-11-03T13:11:08;19.20;60.30
49777;DHT22;35673;51.482;7.436;2022-11-03T13:13:52;18.90;61.40
49777;DHT22;35673;51.482;7.436;2022-11-03T13:16:18;18.70;61.30
49777;DHT22;35673;51.482;7.436;2022-11-03T13:18:44;18.60;61.70
49777;DHT22;35673;51.482;7.436;2022-11-03T13:21:09;18.50;62.20
49777;DHT22;35673;51.482;7.436;2022-11-03T13:23:35;18.30;62.40
49777;DHT22;35673;51.482;7.436;2022-11-03T13:26:00;18.00;62.80
49777;DHT22;35673;51.482;7.436;2022-11-03T13:28:26;17.70;63.40
49777;DHT22;35673;51.482;7.436;2022-11-03T13:30:51;17.40;64.00
49777;DHT22;35673;51.482;7.436;2022-11-03T13:33:17;17.30;64.30
49777;DHT22;35673;51.482;7.436;2022-11-03T13:35:43;17.10;65.00
49777;DHT22;35673;51.482;7.436;2022-11-03T13:38:08;16.90;65.30
49777;DHT22;35673;51.482;7.436;2022-11-03T13:40:34;16.90;65.60
49777;DHT22;35673;51.482;7.436;2022-11-03T13:43:00;16.80;65.80
49777;DHT22;35673;51.482;7.436;2022-11-03T13:45:25;16.80;66.00
49777;DHT22;35673;51.482;7.436;2022-11-03T13:47:51;16.70;66.20
49777;DHT22;35673;51.482;7.436;2022-11-03T13:50:17;16.80;66.20
49777;DHT22;35673;51.482;7.436;2022-11-03T13:52:42;16.80;66.30
49777;DHT22;35673;51.482;7.436;2022-11-03T13:55:10;16.70;66.50
49777;DHT22;35673;51.482;7.436;2022-11-03T13:57:35;16.60;66.80
49777;DHT22;35673;51.482;7.436;2022-11-03T14:00:03;16.50;67.00
49777;DHT22;35673;51.482;7.436;2022-11-03T14:02:29;16.40;67.30
49777;DHT22;35673;51.482;7.436;2022-11-03T14:04:54;16.30;67.50
49777;DHT22;35673;51.482;7.436;2022-11-03T14:07:20;16.30;67.70
49777;DHT22;35673;51.482;7.436;2022-11-03T14:09:46;16.20;67.80
49777;DHT22;35673;51.482;7.436;2022-11-03T14:12:11;16.20;68.00
49777;DHT22;35673;51.482;7.436;2022-11-03T14:17:27;16.00;68.40
49777;DHT22;35673;51.482;7.436;2022-11-03T14:19:52;16.00;68.50
49777;DHT22;35673;51.482;7.436;2022-11-03T14:22:19;15.90;68.60
49777;DHT22;35673;51.482;7.436;2022-11-03T14:24:44;15.90;68.90
49777;DHT22;35673;51.482;7.436;2022-11-03T14:27:10;15.90;69.10
49777;DHT22;35673;51.482;7.436;2022-11-03T14:29:37;15.80;69.30
49777;DHT22;35673;51.482;7.436;2022-11-03T14:32:02;15.80;69.50
49777;DHT22;35673;51.482;7.436;2022-11-03T14:34:28;15.70;69.40
49777;DHT22;35673;51.482;7.436;2022-11-03T14:36:54;15.70;69.50
49777;DHT22;35673;51.482;7.436;2022-11-03T14:39:19;15.70;69.70
49777;DHT22;35673;51.482;7.436;2022-11-03T14:41:45;15.60;69.90
49777;DHT22;35673;51.482;7.436;2022-11-03T14:44:33;15.60;70.10
49777;DHT22;35673;51.482;7.436;2022-11-03T14:46:59;15.60;70.20
49777;DHT22;35673;51.482;7.436;2022-11-03T14:49:29;15.60;70.40
49777;DHT22;35673;51.482;7.436;2022-11-03T14:51:55;15.50;70.50
49777;DHT22;35673;51.482;7.436;2022-11-03T14:54:25;15.50;70.50
49777;DHT22;35673;51.482;7.436;2022-11-03T14:56:51;15.50;70.50
49777;DHT22;35673;51.482;7.436;2022-11-03T14:59:17;15.50;70.60
49777;DHT22;35673;51.482;7.436;2022-11-03T15:01:43;15.50;70.80
49777;DHT22;35673;51.482;7.436;2022-11-03T15:04:09;15.50;70.80
49777;DHT22;35673;51.482;7.436;2022-11-03T15:06:36;15.40;70.90
49777;DHT22;35673;51.482;7.436;2022-11-03T15:09:02;15.40;71.00
49777;DHT22;35673;51.482;7.436;2022-11-03T15:11:29;15.40;71.10
49777;DHT22;35673;51.482;7.436;2022-11-03T15:13:54;15.30;71.20
49777;DHT22;35673;51.482;7.436;2022-11-03T15:16:20;15.30;71.30
49777;DHT22;35673;51.482;7.436;2022-11-03T15:18:47;15.30;71.40
49777;DHT22;35673;51.482;7.436;2022-11-03T15:21:12;15.30;71.90
49777;DHT22;35673;51.482;7.436;2022-11-03T15:23:38;15.20;72.30
49777;DHT22;35673;51.482;7.436;2022-11-03T15:26:04;15.20;73.10
49777;DHT22;35673;51.482;7.436;2022-11-03T15:28:29;15.10;73.70
49777;DHT22;35673;51.482;7.436;2022-11-03T15:30:55;15.00;74.30
49777;DHT22;35673;51.482;7.436;2022-11-03T15:33:20;15.00;74.80
49777;DHT22;35673;51.482;7.436;2022-11-03T15:35:46;14.90;74.80
49777;DHT22;35673;51.482;7.436;2022-11-03T15:38:11;14.90;75.10
49777;DHT22;35673;51.482;7.436;2022-11-03T15:40:37;14.80;75.10
49777;DHT22;35673;51.482;7.436;2022-11-03T15:43:03;14.80;75.20
49777;DHT22;35673;51.482;7.436;2022-11-03T15:45:31;14.80;75.10
49777;DHT22;35673;51.482;7.436;2022-11-03T15:47:57;14.80;75.80
49777;DHT22;35673;51.482;7.436;2022-11-03T15:50:22;14.80;75.30
49777;DHT22;35673;51.482;7.436;2022-11-03T15:52:48;14.80;75.40
49777;DHT22;35673;51.482;7.436;2022-11-03T15:55:13;14.80;75.80
49777;DHT22;35673;51.482;7.436;2022-11-03T15:57:39;14.70;76.20
49777;DHT22;35673;51.482;7.436;2022-11-03T16:00:05;14.60;76.80
49777;DHT22;35673;51.482;7.436;2022-11-03T16:02:31;14.50;77.30
49777;DHT22;35673;51.482;7.436;2022-11-03T16:04:57;14.50;77.60
49777;DHT22;35673;51.482;7.436;2022-11-03T16:07:22;14.50;77.80
49777;DHT22;35673;51.482;7.436;2022-11-03T16:09:48;14.50;77.60
49777;DHT22;35673;51.482;7.436;2022-11-03T16:12:14;14.40;78.00
49777;DHT22;35673;51.482;7.436;2022-11-03T16:14:39;14.40;78.30
49777;DHT22;35673;51.482;7.436;2022-11-03T16:17:05;14.30;78.70
49777;DHT22;35673;51.482;7.436;2022-11-03T16:19:31;14.30;79.30
49777;DHT22;35673;51.482;7.436;2022-11-03T16:21:57;14.30;80.10
49777;DHT22;35673;51.482;7.436;2022-11-03T16:24:22;14.20;81.70
49777;DHT22;35673;51.482;7.436;2022-11-03T16:26:48;14.10;83.10
49777;DHT22;35673;51.482;7.436;2022-11-03T16:29:15;14.00;84.70
49777;DHT22;35673;51.482;7.436;2022-11-03T16:31:41;14.00;86.20
49777;DHT22;35673;51.482;7.436;2022-11-03T16:34:06;13.80;89.10
49777;DHT22;35673;51.482;7.436;2022-11-03T16:36:32;13.80;90.40
49777;DHT22;35673;51.482;7.436;2022-11-03T16:38:57;13.70;92.60
49777;DHT22;35673;51.482;7.436;2022-11-03T16:41:23;13.60;94.90
49777;DHT22;35673;51.482;7.436;2022-11-03T16:43:48;13.50;96.80
49777;DHT22;35673;51.482;7.436;2022-11-03T16:46:15;13.40;98.90
49777;DHT22;35673;51.482;7.436;2022-11-03T16:48:40;13.30;99.60
49777;DHT22;35673;51.482;7.436;2022-11-03T16:51:06;13.20;99.90
49777;DHT22;35673;51.482;7.436;2022-11-03T16:53:31;13.10;99.90
49777;DHT22;35673;51.482;7.436;2022-11-03T16:55:57;13.10;99.90
49777;DHT22;35673;51.482;7.436;2022-11-03T16:58:23;13.10;99.90